Time;durP1;ratioP1;P1;durP2;ratioP2;P2;SDS_P1;SDS_P2;PMS_P1;PMS_P2;Temp;Humidity;BMP_temperature;BMP_pressure;BME280_temperature;BME280_humidity;BME280_pressure;Samples;Min_cycle;Max_cycle;Signal;HPM_P1;HPM_P2
2021/12/02 00:00:58;;;;;;;11.02;1.77;;;3.80;99.90;;;;;;5047379;28;20044;-81
2021/12/02 00:03:24;;;;;;;9.88;2.00;;;3.80;99.90;;;;;;5097031;28;20048;-81
2021/12/02 00:05:50;;;;;;;9.93;1.75;;;3.80;99.90;;;;;;5078965;28;20044;-81
2021/12/02 00:08:16;;;;;;;7.22;1.45;;;3.90;99.90;;;;;;5067392;28;20044;-81
2021/12/02 00:10:42;;;;;;;10.70;1.80;;;3.80;99.90;;;;;;5051242;28;20041;-81
2021/12/02 00:13:09;;;;;;;8.20;1.58;;;3.80;99.90;;;;;;5059425;28;20097;-81
2021/12/02 00:15:46;;;;;;;10.02;1.50;;;3.80;99.90;;;;;;5060868;28;20515;-81
2021/12/02 00:23:52;;;;;;;8.20;1.80;;;3.70;99.90;;;;;;5095412;28;20048;-81
2021/12/02 00:26:20;;;;;;;6.60;1.35;;;3.70;99.90;;;;;;5080150;28;20052;-81
2021/12/02 00:28:51;;;;;;;8.15;1.60;;;3.70;99.90;;;;;;5068896;28;20036;-81
2021/12/02 00:31:20;;;;;;;10.07;1.60;;;3.60;99.90;;;;;;5085531;28;20051;-81
2021/12/02 00:33:49;;;;;;;7.60;1.50;;;3.60;99.90;;;;;;5064850;28;20484;-81
2021/12/02 00:36:17;;;;;;;12.13;1.98;;;3.60;99.90;;;;;;5078540;28;20041;-81
2021/12/02 00:38:46;;;;;;;11.20;1.80;;;3.60;99.90;;;;;;5061183;28;20047;-80
2021/12/02 00:41:16;;;;;;;8.32;1.45;;;3.50;99.90;;;;;;5075790;28;20495;-80
2021/12/02 00:43:46;;;;;;;9.18;1.60;;;3.50;99.90;;;;;;5053014;28;20033;-80
2021/12/02 00:46:16;;;;;;;8.98;1.70;;;3.40;99.90;;;;;;5061755;28;20029;-80
2021/12/02 00:48:42;;;;;;;9.63;1.77;;;3.40;99.90;;;;;;5073342;28;20032;-80
2021/12/02 00:51:10;;;;;;;9.30;2.00;;;3.40;99.90;;;;;;5055797;28;20448;-81
2021/12/02 00:53:42;;;;;;;13.30;1.77;;;3.40;99.90;;;;;;5056916;28;20484;-80
2021/12/02 00:56:10;;;;;;;10.77;1.58;;;3.30;99.90;;;;;;5074211;28;20122;-81
2021/12/02 00:58:37;;;;;;;9.30;1.50;;;3.30;99.90;;;;;;5074826;28;20044;-81
2021/12/02 01:01:03;;;;;;;8.60;1.48;;;3.30;99.90;;;;;;5041498;28;20040;-80
2021/12/02 01:03:39;;;;;;;9.45;1.73;;;3.30;99.90;;;;;;5034893;28;20036;-81
2021/12/02 01:06:06;;;;;;;7.63;1.85;;;3.30;99.90;;;;;;5056749;28;20043;-81
2021/12/02 01:08:34;;;;;;;9.40;2.00;;;3.20;99.90;;;;;;5057199;28;20036;-81
2021/12/02 01:11:01;;;;;;;7.85;1.70;;;3.20;99.90;;;;;;5054149;28;20102;-81
2021/12/02 01:13:27;;;;;;;9.07;1.90;;;3.20;99.90;;;;;;5056252;28;20041;-80
2021/12/02 01:15:53;;;;;;;10.07;2.08;;;3.10;99.90;;;;;;5041730;28;20560;-80
2021/12/02 01:18:19;;;;;;;11.85;2.47;;;3.20;99.90;;;;;;5037872;28;20410;-80
2021/12/02 01:20:49;;;;;;;7.70;1.80;;;3.10;99.90;;;;;;5072473;28;20071;-81
2021/12/02 01:23:16;;;;;;;9.45;1.70;;;3.10;99.90;;;;;;5034201;28;20087;-81
2021/12/02 01:25:47;;;;;;;8.48;1.85;;;3.10;99.90;;;;;;5041386;28;20503;-81
2021/12/02 01:28:13;;;;;;;10.25;1.90;;;3.10;99.90;;;;;;5054139;28;20036;-80
2021/12/02 01:30:40;;;;;;;7.95;1.70;;;3.10;99.90;;;;;;5074771;28;20064;-80
2021/12/02 01:33:07;;;;;;;9.73;1.75;;;3.10;99.90;;;;;;5056475;28;20036;-80
2021/12/02 01:35:35;;;;;;;10.57;1.70;;;3.20;99.90;;;;;;5091771;28;20044;-81
2021/12/02 01:38:01;;;;;;;11.07;1.67;;;3.10;99.90;;;;;;5054371;28;20060;-81
2021/12/02 01:40:28;;;;;;;6.80;1.45;;;3.20;99.90;;;;;;5069875;28;20078;-80
2021/12/02 01:42:56;;;;;;;8.77;1.50;;;3.10;99.90;;;;;;5074133;28;20047;-82
2021/12/02 01:45:29;;;;;;;10.02;1.60;;;3.10;99.90;;;;;;5057579;28;20095;-81
2021/12/02 01:47:57;;;;;;;7.95;1.35;;;3.20;99.90;;;;;;5055186;28;20110;-81
2021/12/02 01:50:26;;;;;;;8.43;1.60;;;3.10;99.90;;;;;;5052460;28;20478;-81
2021/12/02 01:53:00;;;;;;;9.43;1.58;;;3.20;99.90;;;;;;5055480;28;20487;-81
2021/12/02 01:55:28;;;;;;;6.53;1.60;;;3.20;99.90;;;;;;5045537;28;20044;-81
2021/12/02 01:57:59;;;;;;;7.50;1.67;;;3.20;99.90;;;;;;5062716;28;20033;-81
2021/12/02 02:00:41;;;;;;;10.30;1.42;;;3.20;99.90;;;;;;5053767;28;20400;-81
2021/12/02 02:03:08;;;;;;;6.35;1.27;;;3.10;99.90;;;;;;5068860;28;20044;-81
2021/12/02 02:05:34;;;;;;;6.72;1.50;;;3.10;99.90;;;;;;5050023;28;20036;-81
2021/12/02 02:08:16;;;;;;;7.47;1.55;;;3.20;99.90;;;;;;5047659;28;20051;-80
2021/12/02 02:10:43;;;;;;;8.70;1.55;;;3.10;99.90;;;;;;5059916;28;20037;-80
2021/12/02 02:13:12;;;;;;;7.80;1.40;;;3.10;99.90;;;;;;5065719;28;20035;-80
2021/12/02 02:15:43;;;;;;;8.88;1.58;;;3.20;99.90;;;;;;5047585;28;20435;-80
2021/12/02 02:21:02;;;;;;;8.77;1.38;;;3.20;99.90;;;;;;5045085;28;20727;-81
2021/12/02 02:23:36;;;;;;;7.03;1.33;;;3.20;99.90;;;;;;5042602;28;20131;-81
2021/12/02 02:26:02;;;;;;;7.18;1.50;;;3.30;99.90;;;;;;5057947;28;20048;-81
2021/12/02 02:28:29;;;;;;;7.25;1.60;;;3.30;99.90;;;;;;5066109;28;20086;-81
2021/12/02 02:30:55;;;;;;;6.25;1.30;;;3.30;99.90;;;;;;5048961;28;20040;-81
2021/12/02 02:33:22;;;;;;;7.75;1.40;;;3.30;99.90;;;;;;5042666;28;20043;-81
2021/12/02 02:35:50;;;;;;;9.93;1.40;;;3.30;99.90;;;;;;5041984;28;20446;-81
2021/12/02 02:38:16;;;;;;;4.28;1.02;;;3.30;99.90;;;;;;5034418;28;20104;-80
2021/12/02 02:40:45;;;;;;;4.55;1.17;;;3.20;99.90;;;;;;5071817;28;20041;-81
2021/12/02 02:43:20;;;;;;;10.25;1.40;;;3.20;99.90;;;;;;5058922;28;20078;-82
2021/12/02 02:45:46;;;;;;;8.25;1.33;;;3.20;99.90;;;;;;5048538;28;20488;-80
2021/12/02 02:48:12;;;;;;;8.15;1.27;;;3.10;99.90;;;;;;5063318;28;20032;-80
2021/12/02 02:50:38;;;;;;;6.05;1.20;;;3.10;99.90;;;;;;5045645;28;20504;-80
2021/12/02 02:53:06;;;;;;;6.13;1.10;;;3.10;99.90;;;;;;5053509;28;20048;-80
2021/12/02 02:55:34;;;;;;;6.97;1.30;;;3.00;99.90;;;;;;5085844;28;20442;-80
2021/12/02 02:58:17;;;;;;;6.57;1.30;;;3.00;99.90;;;;;;5060660;28;20170;-82
2021/12/02 03:00:54;;;;;;;5.55;1.25;;;3.00;99.90;;;;;;5079704;28;20036;-82
2021/12/02 03:03:34;;;;;;;8.15;1.30;;;3.00;99.90;;;;;;5068217;28;20045;-82
2021/12/02 03:09:01;;;;;;;5.70;1.00;;;2.90;99.90;;;;;;5095768;28;20048;-80
2021/12/02 03:11:36;;;;;;;4.53;1.08;;;2.90;99.90;;;;;;5056784;28;20123;-80
2021/12/02 03:14:09;;;;;;;6.28;1.27;;;2.90;99.90;;;;;;5060420;28;20064;-81
2021/12/02 03:16:45;;;;;;;5.35;1.10;;;3.00;99.90;;;;;;5068794;28;20044;-80
2021/12/02 03:19:28;;;;;;;6.57;1.10;;;2.90;99.90;;;;;;5047571;28;20119;-80
2021/12/02 03:21:55;;;;;;;5.45;0.95;;;2.90;99.90;;;;;;5084246;28;20041;-80
2021/12/02 03:24:22;;;;;;;6.45;1.10;;;2.90;99.90;;;;;;5078021;28;20113;-80
2021/12/02 03:26:48;;;;;;;5.53;1.15;;;2.80;99.90;;;;;;5074883;28;20033;-81
2021/12/02 03:29:15;;;;;;;6.13;1.00;;;2.80;99.90;;;;;;5065144;28;20044;-81
2021/12/02 03:31:41;;;;;;;4.25;0.90;;;3.10;99.90;;;;;;5077649;28;20028;-81
2021/12/02 03:34:07;;;;;;;5.82;1.00;;;2.80;99.90;;;;;;5050717;28;20499;-81
2021/12/02 03:36:34;;;;;;;3.70;0.95;;;2.90;99.90;;;;;;5049084;28;20073;-81
2021/12/02 03:39:00;;;;;;;5.15;1.00;;;2.80;99.90;;;;;;5062213;28;20051;-81
2021/12/02 03:41:27;;;;;;;5.97;1.02;;;2.70;99.90;;;;;;5056322;28;20036;-82
2021/12/02 03:43:53;;;;;;;4.20;0.90;;;2.60;99.90;;;;;;5051889;28;20040;-81
2021/12/02 03:46:21;;;;;;;3.38;1.00;;;3.10;99.90;;;;;;5063129;28;20529;-81
2021/12/02 03:48:48;;;;;;;4.43;0.90;;;2.60;99.90;;;;;;5063953;28;20063;-80
2021/12/02 03:51:13;;;;;;;3.75;1.02;;;2.90;99.90;;;;;;5075833;28;20052;-80
2021/12/02 03:53:40;;;;;;;3.25;1.00;;;2.50;99.90;;;;;;5053938;28;20431;-80
2021/12/02 03:56:08;;;;;;;5.28;0.95;;;2.50;99.90;;;;;;5082938;28;20043;-80
2021/12/02 03:58:35;;;;;;;4.45;1.10;;;2.50;99.90;;;;;;5072945;28;20056;-81
2021/12/02 04:01:00;;;;;;;4.18;0.90;;;3.00;99.90;;;;;;5070480;28;20051;-81
2021/12/02 04:03:26;;;;;;;5.50;0.90;;;2.40;99.90;;;;;;5046186;28;20461;-81
2021/12/02 04:05:52;;;;;;;5.72;0.98;;;2.40;99.90;;;;;;5089410;28;20129;-81
2021/12/02 04:08:19;;;;;;;5.45;1.02;;;2.40;99.90;;;;;;5043524;28;20040;-81
2021/12/02 04:10:45;;;;;;;4.57;1.00;;;2.40;99.90;;;;;;5044134;28;20040;-81
2021/12/02 04:15:40;;;;;;;3.78;1.00;;;2.50;99.90;;;;;;5068351;28;20132;-81
2021/12/02 04:18:09;;;;;;;5.82;1.08;;;2.50;99.90;;;;;;5068758;28;20075;-81
2021/12/02 04:20:37;;;;;;;4.57;1.00;;;2.50;99.90;;;;;;5084996;28;20492;-81
2021/12/02 04:23:03;;;;;;;5.63;0.90;;;2.50;99.90;;;;;;5074923;28;20080;-81
2021/12/02 04:25:29;;;;;;;3.35;0.90;;;2.50;99.90;;;;;;5066543;28;20104;-81
2021/12/02 04:27:55;;;;;;;2.50;0.90;;;2.50;99.90;;;;;;5066590;28;20408;-81
2021/12/02 04:30:24;;;;;;;6.43;0.95;;;2.50;99.90;;;;;;5069296;28;20052;-81
2021/12/02 04:32:51;;;;;;;4.57;1.10;;;2.50;99.90;;;;;;5089698;28;20078;-81
2021/12/02 04:35:17;;;;;;;4.55;1.00;;;2.50;99.90;;;;;;5090008;28;20036;-80
2021/12/02 04:37:44;;;;;;;5.82;1.10;;;2.50;99.90;;;;;;5052889;28;20103;-81
2021/12/02 04:40:12;;;;;;;5.63;1.02;;;2.40;99.90;;;;;;5096057;28;20044;-80
2021/12/02 04:42:38;;;;;;;4.15;1.00;;;2.40;99.90;;;;;;5060947;28;20039;-80
2021/12/02 04:45:05;;;;;;;4.20;1.02;;;2.40;99.90;;;;;;5075886;28;20132;-80
2021/12/02 04:47:31;;;;;;;4.38;1.10;;;2.40;99.90;;;;;;5061091;28;20408;-80
2021/12/02 04:49:56;;;;;;;5.50;1.20;;;2.30;99.90;;;;;;5062648;28;20059;-81
2021/12/02 04:52:22;;;;;;;3.97;1.08;;;2.50;99.90;;;;;;5070543;28;20050;-82
2021/12/02 04:54:48;;;;;;;4.57;1.20;;;2.30;99.90;;;;;;5048895;28;20096;-81
2021/12/02 04:57:14;;;;;;;6.25;1.30;;;2.30;99.90;;;;;;5060583;28;20531;-81
2021/12/02 04:59:40;;;;;;;3.78;1.25;;;2.20;99.90;;;;;;5047877;28;20048;-81
2021/12/02 05:02:05;;;;;;;6.32;1.20;;;2.30;99.90;;;;;;5068609;28;20040;-80
2021/12/02 05:04:31;;;;;;;3.45;1.10;;;2.20;99.90;;;;;;5076626;28;20070;-80
2021/12/02 05:06:57;;;;;;;4.78;1.20;;;2.30;99.90;;;;;;5061871;28;20529;-80
2021/12/02 05:09:23;;;;;;;5.70;1.20;;;2.20;99.90;;;;;;5046814;28;20063;-80
2021/12/02 05:11:49;;;;;;;5.93;1.30;;;2.20;99.90;;;;;;5063263;28;20081;-80
2021/12/02 05:14:14;;;;;;;7.18;1.30;;;2.10;99.90;;;;;;5045192;28;20047;-82
2021/12/02 05:16:40;;;;;;;4.07;1.10;;;2.20;99.90;;;;;;5095364;28;20071;-81
2021/12/02 05:19:06;;;;;;;4.78;1.17;;;2.10;99.90;;;;;;5055878;28;20036;-80
2021/12/02 05:21:32;;;;;;;7.43;1.30;;;2.10;99.90;;;;;;5087016;28;20043;-81
2021/12/02 05:23:58;;;;;;;4.97;1.25;;;2.00;99.90;;;;;;5046807;28;20093;-81
2021/12/02 05:26:26;;;;;;;4.15;1.20;;;2.00;99.90;;;;;;5051091;28;20039;-81
2021/12/02 05:28:53;;;;;;;6.30;1.10;;;2.00;99.90;;;;;;5088743;28;20064;-82
2021/12/02 05:31:20;;;;;;;6.45;1.38;;;2.00;99.90;;;;;;5077286;28;20059;-81
2021/12/02 05:33:46;;;;;;;5.28;1.30;;;2.00;99.90;;;;;;5062443;28;20061;-81
2021/12/02 05:36:12;;;;;;;4.22;1.30;;;2.00;99.90;;;;;;5085004;28;20076;-80
2021/12/02 05:38:37;;;;;;;5.10;1.33;;;2.00;99.90;;;;;;5077798;28;20042;-81
2021/12/02 05:41:03;;;;;;;4.32;1.20;;;2.00;99.90;;;;;;5083104;28;20099;-81
2021/12/02 05:43:30;;;;;;;4.68;1.30;;;2.00;99.90;;;;;;5060021;28;20048;-81
2021/12/02 05:45:56;;;;;;;5.07;1.10;;;2.10;99.90;;;;;;5091894;28;20038;-81
2021/12/02 05:48:22;;;;;;;4.95;1.20;;;2.00;99.90;;;;;;5075618;28;20123;-81
2021/12/02 05:50:49;;;;;;;5.68;1.33;;;2.00;99.90;;;;;;5086542;28;20110;-81
2021/12/02 05:53:14;;;;;;;4.05;1.20;;;2.00;99.90;;;;;;5076591;28;20051;-81
2021/12/02 05:55:40;;;;;;;2.13;0.98;;;2.00;99.90;;;;;;5084158;28;20402;-81
2021/12/02 05:58:13;;;;;;;4.45;1.23;;;2.00;99.90;;;;;;5054468;28;20544;-80
2021/12/02 06:00:40;;;;;;;4.38;1.23;;;2.30;99.90;;;;;;5065624;28;20050;-80
2021/12/02 06:03:06;;;;;;;6.18;1.30;;;2.00;99.90;;;;;;5066649;28;20052;-80
2021/12/02 06:05:32;;;;;;;6.43;1.40;;;2.00;99.90;;;;;;5068897;28;20113;-81
2021/12/02 06:08:00;;;;;;;6.32;1.40;;;2.00;99.90;;;;;;5065896;28;20039;-80
2021/12/02 06:10:26;;;;;;;6.25;1.50;;;2.00;99.90;;;;;;5085907;28;20040;-81
2021/12/02 06:12:52;;;;;;;6.25;1.40;;;2.00;99.90;;;;;;5068296;28;20061;-80
2021/12/02 06:15:19;;;;;;;6.03;1.35;;;2.00;99.90;;;;;;5092474;28;20035;-80
2021/12/02 06:17:45;;;;;;;6.78;1.73;;;1.90;99.90;;;;;;5068947;28;20543;-80
2021/12/02 06:20:12;;;;;;;7.47;1.45;;;2.00;99.90;;;;;;5079348;28;20035;-80
2021/12/02 06:22:38;;;;;;;6.03;1.50;;;2.00;99.90;;;;;;5065746;28;20159;-81
2021/12/02 06:27:44;;;;;;;6.32;1.27;;;2.00;99.90;;;;;;5073262;28;20492;-81
2021/12/02 06:30:11;;;;;;;5.18;1.20;;;2.10;99.90;;;;;;5071659;28;20032;-81
2021/12/02 06:32:37;;;;;;;5.75;1.30;;;2.00;99.90;;;;;;5057946;28;20390;-81
2021/12/02 06:35:03;;;;;;;5.05;1.42;;;2.00;99.90;;;;;;5076478;28;20050;-81
2021/12/02 06:37:29;;;;;;;3.67;1.10;;;2.00;99.90;;;;;;5058020;28;20043;-80
2021/12/02 06:39:55;;;;;;;4.35;1.23;;;2.20;99.90;;;;;;5069146;28;20039;-80
2021/12/02 06:42:21;;;;;;;5.13;1.38;;;2.60;99.90;;;;;;5065517;28;20097;-82
2021/12/02 06:44:47;;;;;;;4.20;1.23;;;2.40;99.90;;;;;;5046995;28;20044;-80
2021/12/02 06:47:13;;;;;;;4.55;1.27;;;2.00;99.90;;;;;;5043088;28;20115;-80
2021/12/02 06:49:40;;;;;;;4.18;1.25;;;2.10;99.90;;;;;;5045831;28;20089;-80
2021/12/02 06:52:12;;;;;;;3.88;1.27;;;2.10;99.90;;;;;;5088073;28;20051;-80
2021/12/02 06:54:38;;;;;;;6.85;1.30;;;2.10;99.90;;;;;;5076074;28;20043;-80
2021/12/02 06:57:05;;;;;;;6.07;1.40;;;2.10;99.90;;;;;;5078826;28;20036;-82
2021/12/02 06:59:31;;;;;;;5.93;1.40;;;2.10;99.90;;;;;;5060831;28;20091;-81
2021/12/02 07:01:56;;;;;;;3.35;1.05;;;2.50;99.90;;;;;;5066839;28;20046;-81
2021/12/02 07:04:22;;;;;;;5.03;1.23;;;2.10;99.90;;;;;;5082021;28;20503;-81
2021/12/02 07:06:48;;;;;;;5.32;1.40;;;2.10;99.90;;;;;;5066960;28;20073;-81
2021/12/02 07:09:14;;;;;;;4.32;1.30;;;2.10;99.90;;;;;;5082763;28;20501;-81
2021/12/02 07:11:41;;;;;;;4.63;1.50;;;2.20;99.90;;;;;;5088266;28;20075;-81
2021/12/02 07:14:10;;;;;;;4.60;1.40;;;2.10;99.90;;;;;;5080669;28;20064;-81
2021/12/02 07:16:37;;;;;;;7.03;1.50;;;2.20;99.90;;;;;;5057832;28;20458;-81
2021/12/02 07:19:05;;;;;;;5.15;1.40;;;2.20;99.90;;;;;;5080236;28;20031;-81
2021/12/02 07:21:31;;;;;;;6.00;1.60;;;2.20;99.90;;;;;;5078370;28;20093;-81
2021/12/02 07:23:57;;;;;;;5.35;1.52;;;2.20;99.90;;;;;;5073574;28;20498;-81
2021/12/02 07:26:23;;;;;;;4.70;1.25;;;2.20;99.90;;;;;;5056411;28;20127;-81
2021/12/02 07:28:49;;;;;;;5.47;1.48;;;2.20;99.90;;;;;;5072097;28;20032;-81
2021/12/02 07:31:15;;;;;;;6.80;1.50;;;2.20;99.90;;;;;;5056958;28;20035;-81
2021/12/02 07:33:48;;;;;;;5.07;1.45;;;2.90;99.90;;;;;;5056633;28;20387;-81
2021/12/02 07:36:15;;;;;;;3.50;1.30;;;2.20;99.90;;;;;;5066825;28;20483;-81
2021/12/02 07:38:41;;;;;;;4.63;1.52;;;2.20;99.90;;;;;;5073038;28;20088;-81
2021/12/02 07:41:07;;;;;;;5.25;1.67;;;2.20;99.90;;;;;;5063466;28;20043;-81
2021/12/02 07:43:35;;;;;;;6.82;1.70;;;3.00;99.90;;;;;;5065359;28;20046;-81
2021/12/02 07:46:02;;;;;;;6.15;1.65;;;2.20;99.90;;;;;;5080771;28;20068;-81
2021/12/02 07:48:28;;;;;;;5.03;1.75;;;2.20;99.90;;;;;;5066672;28;20067;-81
2021/12/02 07:51:00;;;;;;;5.80;1.70;;;2.20;99.90;;;;;;5078591;28;20055;-81
2021/12/02 07:53:28;;;;;;;5.80;1.60;;;2.20;99.90;;;;;;5089441;28;20031;-81
2021/12/02 07:55:55;;;;;;;6.75;1.90;;;2.20;99.90;;;;;;5057468;28;20040;-81
2021/12/02 07:58:23;;;;;;;7.38;1.77;;;2.20;99.90;;;;;;5078611;28;20072;-80
2021/12/02 08:00:50;;;;;;;5.88;2.00;;;2.20;99.90;;;;;;5062025;28;20095;-81
2021/12/02 08:03:16;;;;;;;4.82;1.70;;;2.20;99.90;;;;;;5088028;28;20043;-80
2021/12/02 08:05:42;;;;;;;6.63;1.70;;;3.00;99.90;;;;;;5076445;28;20058;-81
2021/12/02 08:08:09;;;;;;;4.97;1.73;;;2.20;99.90;;;;;;5075005;28;20032;-81
2021/12/02 08:10:36;;;;;;;5.35;1.70;;;2.60;99.90;;;;;;5082973;28;20547;-81
2021/12/02 08:13:03;;;;;;;5.57;2.05;;;2.50;99.90;;;;;;5062935;28;20109;-81
2021/12/02 08:15:30;;;;;;;5.80;1.98;;;2.20;99.90;;;;;;5075408;28;20036;-81
2021/12/02 08:17:57;;;;;;;6.32;2.25;;;2.30;99.90;;;;;;5066846;28;20097;-81
2021/12/02 08:20:25;;;;;;;7.30;2.58;;;2.20;99.90;;;;;;5096999;28;20054;-80
2021/12/02 08:22:51;;;;;;;7.35;3.10;;;2.40;99.90;;;;;;5091802;28;20047;-80
2021/12/02 08:25:19;;;;;;;7.82;3.00;;;2.40;99.90;;;;;;5062003;28;20036;-79
2021/12/02 08:27:45;;;;;;;6.20;2.58;;;2.40;99.90;;;;;;5075497;28;20166;-80
2021/12/02 08:30:14;;;;;;;6.20;2.25;;;2.50;99.90;;;;;;5088863;28;20065;-80
2021/12/02 08:32:42;;;;;;;6.10;2.33;;;2.50;99.90;;;;;;5063146;28;20082;-80
2021/12/02 08:35:13;;;;;;;5.75;2.28;;;2.50;99.90;;;;;;5078967;28;20504;-80
2021/12/02 08:37:43;;;;;;;5.45;2.05;;;2.70;99.90;;;;;;5070909;28;20039;-80
2021/12/02 08:40:11;;;;;;;6.88;2.53;;;3.10;99.90;;;;;;5081320;28;20044;-79
2021/12/02 08:42:37;;;;;;;6.38;2.72;;;2.60;99.90;;;;;;5076153;28;20040;-80
2021/12/02 08:45:04;;;;;;;5.63;2.47;;;2.70;99.90;;;;;;5051663;28;20044;-80
2021/12/02 08:47:29;;;;;;;6.35;2.67;;;2.70;99.90;;;;;;5082800;28;20074;-80
2021/12/02 08:49:56;;;;;;;6.13;2.67;;;2.70;99.90;;;;;;5091201;28;20494;-80
2021/12/02 08:52:24;;;;;;;5.72;2.25;;;2.80;99.90;;;;;;5078492;28;20403;-80
2021/12/02 08:54:51;;;;;;;5.15;2.50;;;2.80;99.90;;;;;;5070936;28;20072;-80
2021/12/02 08:57:19;;;;;;;6.03;2.35;;;2.80;99.90;;;;;;5086713;28;20036;-80
2021/12/02 08:59:45;;;;;;;8.52;3.25;;;2.90;99.90;;;;;;5073616;28;20036;-80
2021/12/02 09:02:11;;;;;;;8.57;2.83;;;3.30;99.90;;;;;;5061514;28;20040;-80
2021/12/02 09:04:38;;;;;;;4.97;2.33;;;2.90;99.90;;;;;;5063538;28;20032;-80
2021/12/02 09:07:05;;;;;;;6.65;2.90;;;2.90;99.90;;;;;;5058408;28;20131;-80
2021/12/02 09:09:30;;;;;;;5.10;2.70;;;2.90;99.90;;;;;;5071562;28;20442;-80
2021/12/02 09:11:57;;;;;;;7.50;3.10;;;2.90;99.90;;;;;;5056838;28;20074;-80
2021/12/02 09:14:23;;;;;;;7.22;3.20;;;2.90;99.90;;;;;;5060779;28;20482;-80
2021/12/02 09:16:51;;;;;;;6.45;2.40;;;2.90;99.90;;;;;;5044850;28;20070;-80
2021/12/02 09:19:17;;;;;;;6.35;3.05;;;2.90;99.90;;;;;;5076742;28;20044;-79
2021/12/02 09:21:44;;;;;;;5.30;2.50;;;2.90;99.90;;;;;;5068142;28;20091;-79
2021/12/02 09:24:11;;;;;;;7.03;2.90;;;2.90;99.90;;;;;;5043664;28;20044;-79
2021/12/02 09:26:38;;;;;;;6.80;3.03;;;2.90;99.90;;;;;;5067513;28;20092;-79
2021/12/02 09:29:05;;;;;;;5.80;2.90;;;3.00;99.90;;;;;;5044633;28;20036;-79
2021/12/02 09:31:31;;;;;;;7.50;4.68;;;2.90;99.90;;;;;;5068475;28;20486;-79
2021/12/02 09:33:57;;;;;;;5.60;2.97;;;3.10;99.90;;;;;;5088019;28;20036;-79
2021/12/02 09:36:24;;;;;;;6.30;3.22;;;3.00;99.90;;;;;;5064812;28;20039;-80
2021/12/02 09:38:50;;;;;;;5.78;3.00;;;3.00;99.90;;;;;;5073806;28;20105;-80
2021/12/02 09:41:15;;;;;;;7.22;3.30;;;3.10;99.90;;;;;;5063721;28;20043;-80
2021/12/02 09:43:42;;;;;;;7.05;4.05;;;3.10;99.90;;;;;;5046995;28;20513;-80
2021/12/02 09:46:10;;;;;;;8.95;3.38;;;3.10;99.90;;;;;;5069347;28;20061;-80
2021/12/02 09:48:36;;;;;;;7.07;3.17;;;3.20;99.90;;;;;;5043348;28;20067;-80
2021/12/02 09:51:07;;;;;;;5.95;2.65;;;3.30;99.90;;;;;;5078286;28;20474;-80
2021/12/02 09:53:52;;;;;;;5.32;2.33;;;3.50;99.90;;;;;;5053066;28;20127;-79
2021/12/02 09:56:24;;;;;;;5.90;2.42;;;3.70;99.90;;;;;;5070705;28;20067;-80
2021/12/02 09:58:52;;;;;;;4.70;2.25;;;4.00;99.90;;;;;;5051083;28;20103;-80
2021/12/02 10:01:20;;;;;;;6.00;1.90;;;4.20;99.90;;;;;;5045766;28;20047;-79
2021/12/02 10:03:51;;;;;;;4.63;1.90;;;4.30;99.90;;;;;;5077027;28;20040;-79
2021/12/02 10:06:25;;;;;;;4.38;1.60;;;4.30;99.90;;;;;;5067130;28;20424;-79
2021/12/02 10:11:59;;;;;;;4.43;1.52;;;4.20;99.90;;;;;;5100476;28;20077;-79
2021/12/02 10:14:38;;;;;;;5.95;2.00;;;4.20;99.90;;;;;;5071638;28;20384;-79
2021/12/02 10:17:33;;;;;;;4.60;1.52;;;4.30;99.90;;;;;;5077782;28;20039;-79
2021/12/02 10:23:19;;;;;;;6.38;1.70;;;4.50;99.90;;;;;;5096543;28;20052;-80
2021/12/02 10:25:58;;;;;;;3.55;1.45;;;4.50;99.90;;;;;;5066064;28;20491;-80
2021/12/02 10:28:25;;;;;;;5.90;1.60;;;4.50;99.90;;;;;;5101004;28;20483;-80
2021/12/02 10:30:57;;;;;;;5.57;1.60;;;4.40;99.90;;;;;;5072910;28;20052;-79
2021/12/02 10:33:41;;;;;;;4.70;1.90;;;4.50;99.90;;;;;;5064942;28;20043;-80
2021/12/02 10:36:22;;;;;;;4.43;1.55;;;4.40;99.90;;;;;;5075474;28;20047;-79
2021/12/02 10:38:48;;;;;;;4.30;1.47;;;4.40;99.90;;;;;;5086834;28;20387;-79
2021/12/02 10:41:17;;;;;;;4.78;1.52;;;4.50;99.90;;;;;;5073690;28;20054;-79
2021/12/02 10:44:17;;;;;;;4.75;1.38;;;4.60;99.90;;;;;;5083225;28;20039;-79
2021/12/02 10:47:07;;;;;;;4.38;1.42;;;4.70;99.90;;;;;;5080066;28;20055;-80
2021/12/02 10:49:42;;;;;;;3.70;1.40;;;4.70;99.90;;;;;;5072759;28;20031;-80
2021/12/02 10:52:33;;;;;;;4.90;1.40;;;4.70;99.90;;;;;;5090181;28;20619;-80
2021/12/02 10:55:04;;;;;;;4.55;1.20;;;4.60;99.90;;;;;;5061411;28;20044;-80
2021/12/02 10:57:32;;;;;;;4.50;1.48;;;4.50;99.90;;;;;;5091682;28;20127;-81
2021/12/02 11:00:04;;;;;;;4.93;1.40;;;4.30;99.90;;;;;;5083743;28;20063;-80
2021/12/02 11:02:35;;;;;;;4.18;1.80;;;4.20;99.90;;;;;;5069643;28;20043;-80
2021/12/02 11:05:08;;;;;;;4.63;2.00;;;4.10;99.90;;;;;;5056037;28;20028;-80
2021/12/02 11:07:40;;;;;;;5.43;2.10;;;3.90;99.90;;;;;;5086475;28;20051;-80
2021/12/02 11:10:09;;;;;;;4.45;1.70;;;3.80;99.90;;;;;;5078376;28;20065;-79
2021/12/02 11:12:44;;;;;;;5.28;2.15;;;3.80;99.90;;;;;;5068622;28;20109;-79
2021/12/02 11:15:19;;;;;;;5.20;2.00;;;3.50;99.90;;;;;;5092795;28;20047;-80
2021/12/02 11:17:47;;;;;;;4.20;1.48;;;3.40;99.90;;;;;;5069124;28;20127;-81
2021/12/02 11:20:25;;;;;;;5.15;1.23;;;3.30;99.90;;;;;;5097907;28;20036;-79
2021/12/02 11:23:00;;;;;;;4.10;1.40;;;3.20;99.90;;;;;;5091257;28;20494;-80
2021/12/02 11:25:26;;;;;;;4.60;1.20;;;3.20;99.90;;;;;;5066524;28;20036;-81
2021/12/02 11:27:53;;;;;;;5.10;1.35;;;3.50;99.90;;;;;;5060403;28;20040;-80
2021/12/02 11:30:26;;;;;;;8.98;1.33;;;3.10;99.90;;;;;;5073742;28;20036;-80
2021/12/02 11:33:05;;;;;;;3.97;1.10;;;3.10;99.90;;;;;;5069041;28;20048;-81
2021/12/02 11:35:39;;;;;;;3.83;1.10;;;3.10;99.90;;;;;;5070527;28;20031;-80
2021/12/02 11:38:09;;;;;;;2.42;0.90;;;3.20;99.90;;;;;;5096467;28;20043;-80
2021/12/02 11:40:40;;;;;;;4.38;1.08;;;3.20;99.90;;;;;;5070861;27;20039;-79
2021/12/02 11:43:07;;;;;;;4.63;0.95;;;3.20;99.90;;;;;;5096896;28;20498;-80
2021/12/02 11:45:42;;;;;;;2.75;0.88;;;3.20;99.90;;;;;;5071044;28;20137;-81
2021/12/02 11:48:09;;;;;;;2.25;0.90;;;3.10;99.90;;;;;;5063346;28;20167;-80
2021/12/02 11:50:34;;;;;;;2.78;0.80;;;3.10;99.90;;;;;;5046030;28;20498;-80
2021/12/02 11:53:00;;;;;;;3.63;0.90;;;3.10;99.90;;;;;;5067359;28;20039;-80
2021/12/02 11:55:33;;;;;;;3.33;1.00;;;2.90;99.90;;;;;;5061489;28;20044;-80
2021/12/02 11:57:59;;;;;;;5.38;1.00;;;2.90;99.90;;;;;;5058940;28;20484;-80
2021/12/02 12:00:27;;;;;;;4.20;0.95;;;3.10;99.90;;;;;;5046896;28;20044;-80
2021/12/02 12:03:08;;;;;;;4.88;1.20;;;2.90;99.90;;;;;;5050049;28;20040;-80
2021/12/02 12:05:39;;;;;;;2.88;0.82;;;2.90;99.90;;;;;;5046689;28;20040;-80
2021/12/02 12:08:05;;;;;;;3.95;0.90;;;2.90;99.90;;;;;;5049911;28;20032;-80
2021/12/02 12:10:39;;;;;;;4.50;1.10;;;2.90;99.90;;;;;;5043357;28;20165;-79
2021/12/02 12:13:17;;;;;;;2.60;0.90;;;2.90;99.90;;;;;;5060897;28;20502;-80
2021/12/02 12:15:58;;;;;;;4.65;1.10;;;2.90;99.90;;;;;;5069101;28;20058;-80
2021/12/02 12:18:39;;;;;;;4.22;1.10;;;2.80;99.90;;;;;;5049675;28;20047;-80
2021/12/02 12:21:12;;;;;;;5.15;1.10;;;2.80;99.90;;;;;;5061478;28;20518;-80
2021/12/02 12:23:41;;;;;;;2.97;0.93;;;2.80;99.90;;;;;;5072829;28;20561;-80
2021/12/02 12:26:11;;;;;;;3.40;1.10;;;2.90;99.90;;;;;;5050407;28;20485;-80
2021/12/02 12:31:37;;;;;;;3.63;0.98;;;2.70;99.90;;;;;;5062700;28;20048;-81
2021/12/02 12:34:24;;;;;;;5.55;1.10;;;2.70;99.90;;;;;;5052647;28;20040;-81
2021/12/02 12:36:51;;;;;;;2.60;1.10;;;2.60;99.90;;;;;;5072426;28;20044;-80
2021/12/02 12:39:25;;;;;;;2.80;1.20;;;2.60;99.90;;;;;;5051632;28;20071;-80
2021/12/02 12:42:11;;;;;;;3.83;1.30;;;2.70;99.90;;;;;;5074368;28;20063;-80
2021/12/02 12:44:49;;;;;;;3.92;1.35;;;2.80;99.90;;;;;;5058747;28;20056;-80
2021/12/02 12:47:19;;;;;;;4.28;1.80;;;2.90;99.90;;;;;;5048853;28;20074;-80
2021/12/02 12:49:46;;;;;;;4.90;2.20;;;2.90;99.90;;;;;;5049438;28;20127;-80
2021/12/02 12:52:19;;;;;;;4.78;2.38;;;2.90;99.90;;;;;;5058905;28;20055;-80
2021/12/02 12:55:15;;;;;;;5.78;3.03;;;2.80;99.90;;;;;;5069474;28;20039;-80
2021/12/02 12:58:16;;;;;;;6.78;3.33;;;2.80;99.90;;;;;;5063090;28;20372;-80
2021/12/02 13:00:44;;;;;;;6.25;3.90;;;2.70;99.90;;;;;;5059350;28;20036;-81
2021/12/02 13:03:32;;;;;;;6.45;4.38;;;2.70;99.90;;;;;;5065241;28;20044;-80
2021/12/02 13:06:23;;;;;;;7.50;5.03;;;2.70;99.90;;;;;;5073527;28;20600;-80
2021/12/02 13:08:54;;;;;;;7.05;4.72;;;2.70;99.90;;;;;;5031045;28;20037;-80
2021/12/02 13:11:23;;;;;;;7.35;5.38;;;2.70;99.90;;;;;;5069365;28;20063;-80
2021/12/02 13:13:51;;;;;;;7.88;5.93;;;2.80;99.90;;;;;;5059059;28;20097;-81
2021/12/02 13:16:20;;;;;;;7.20;5.20;;;2.50;99.90;;;;;;5052107;28;20032;-81
2021/12/02 13:19:11;;;;;;;7.72;4.07;;;2.80;99.90;;;;;;5055816;28;20518;-81
2021/12/02 13:21:38;;;;;;;5.65;2.70;;;2.30;99.90;;;;;;5071937;28;20031;-80
2021/12/02 13:24:07;;;;;;;5.13;2.70;;;2.30;99.90;;;;;;5045075;28;20166;-80
2021/12/02 13:26:33;;;;;;;6.28;2.10;;;2.30;99.90;;;;;;5054858;28;20040;-81
2021/12/02 13:29:10;;;;;;;4.55;1.83;;;2.40;99.90;;;;;;5072245;28;20090;-81
2021/12/02 13:31:38;;;;;;;3.08;1.38;;;2.40;99.90;;;;;;5067829;28;20063;-81